Terminal Aerodrome Forecast
Issued by NWS

Home | Current Version | Previous Version | Graphics & Text | Print | Product List | Glossary On
Versions: 1 2 3 4 5 6 7 8 9 10 11 12 13 14 15 16 17
000
FTUS43 KGRB 211126
TAFAUW
TAF
KAUW 211126Z 2112/2212 29016G29KT P6SM SCT040
     FM211300 30017G28KT P6SM -SHSN SCT028 BKN035
      TEMPO 2113/2116 -SHSN BKN028
     FM211600 31016G25KT P6SM -SHSN BKN030
     FM212100 31010G19KT P6SM SCT027
     FM220200 31007KT P6SM SKC=

USA.gov is the U.S. government's official web portal to all federal, state and local government web resources and services.